Time;durP1;ratioP1;P1;durP2;ratioP2;P2;SDS_P1;SDS_P2;PMS_P1;PMS_P2;Temp;Humidity;BMP_temperature;BMP_pressure;BME280_temperature;BME280_humidity;BME280_pressure;Samples;Min_cycle;Max_cycle;Signal;HPM_P1;HPM_P2
2023/06/03 00:01:05;;;;;;;3.90;1.70;;;;;;;;;;5080117;28;20039;-63
2023/06/03 00:03:34;;;;;;;4.55;1.90;;;;;;;;;;5092281;28;20032;-63
2023/06/03 00:06:00;;;;;;;4.50;1.90;;;;;;;;;;5093183;28;20139;-63
2023/06/03 00:08:26;;;;;;;3.28;1.90;;;;;;;;;;5093553;28;20032;-63
2023/06/03 00:10:53;;;;;;;5.20;1.98;;;;;;;;;;5090310;28;20056;-62
2023/06/03 00:13:19;;;;;;;6.82;2.10;;;;;;;;;;5097035;28;20062;-62
2023/06/03 00:15:45;;;;;;;3.33;1.70;;;;;;;;;;5092525;28;20177;-62
2023/06/03 00:18:11;;;;;;;3.38;1.80;;;;;;;;;;5092180;28;20036;-62
2023/06/03 00:20:37;;;;;;;4.65;1.75;;;;;;;;;;5100188;28;20569;-62
2023/06/03 00:23:03;;;;;;;5.35;2.13;;;;;;;;;;5093378;28;20466;-62
2023/06/03 00:25:31;;;;;;;5.65;2.00;;;;;;;;;;5091096;28;20046;-62
2023/06/03 00:27:58;;;;;;;4.47;1.92;;;;;;;;;;5082336;28;20485;-62
2023/06/03 00:30:24;;;;;;;4.40;2.25;;;;;;;;;;5082880;28;20047;-62
2023/06/03 00:32:50;;;;;;;2.53;1.55;;;;;;;;;;5090749;28;20441;-62
2023/06/03 00:35:16;;;;;;;11.18;2.13;;;;;;;;;;5091013;28;20048;-62
2023/06/03 00:37:42;;;;;;;3.28;2.00;;;;;;;;;;5095791;28;20035;-63
2023/06/03 00:40:09;;;;;;;3.67;2.05;;;;;;;;;;5099980;28;20401;-62
2023/06/03 00:42:35;;;;;;;3.85;1.73;;;;;;;;;;5096443;28;20396;-63
2023/06/03 00:45:01;;;;;;;2.78;1.92;;;;;;;;;;5093444;28;20459;-62
2023/06/03 00:47:28;;;;;;;3.63;2.13;;;;;;;;;;5096089;28;20040;-63
2023/06/03 00:49:54;;;;;;;3.88;1.90;;;;;;;;;;5092358;28;20120;-63
2023/06/03 00:52:22;;;;;;;3.35;1.80;;;;;;;;;;5091523;28;20047;-63
2023/06/03 00:54:49;;;;;;;4.45;2.20;;;;;;;;;;5126540;27;20088;-63
2023/06/03 00:57:16;;;;;;;5.07;2.47;;;;;;;;;;5106613;28;20035;-63
2023/06/03 00:59:42;;;;;;;4.90;2.00;;;;;;;;;;5095972;28;20533;-63
2023/06/03 01:02:08;;;;;;;4.03;2.00;;;;;;;;;;5090673;28;20039;-63
2023/06/03 01:04:35;;;;;;;5.05;2.45;;;;;;;;;;5088974;28;20043;-63
2023/06/03 01:07:07;;;;;;;6.07;2.55;;;;;;;;;;5095786;28;20035;-63
2023/06/03 01:09:36;;;;;;;5.13;1.85;;;;;;;;;;5092565;28;20046;-63
2023/06/03 01:12:02;;;;;;;6.68;2.03;;;;;;;;;;5091107;28;20052;-64
2023/06/03 01:14:28;;;;;;;3.10;1.60;;;;;;;;;;5091715;28;20505;-63
2023/06/03 01:16:57;;;;;;;6.68;2.58;;;;;;;;;;5082907;28;20036;-64
2023/06/03 01:19:34;;;;;;;3.72;1.95;;;;;;;;;;5089343;28;20483;-63
2023/06/03 01:22:02;;;;;;;4.25;2.13;;;;;;;;;;5072482;28;20189;-63
2023/06/03 01:24:32;;;;;;;4.03;1.95;;;;;;;;;;5084752;28;20043;-63
2023/06/03 01:26:58;;;;;;;4.28;2.17;;;;;;;;;;5100418;28;20110;-63
2023/06/03 01:29:25;;;;;;;5.82;1.85;;;;;;;;;;5093170;28;20036;-63
2023/06/03 01:31:53;;;;;;;3.33;2.42;;;;;;;;;;5089787;28;20101;-63
2023/06/03 01:34:19;;;;;;;3.38;1.52;;;;;;;;;;5098491;28;20067;-63
2023/06/03 01:36:45;;;;;;;3.95;1.77;;;;;;;;;;5089436;28;20156;-64
2023/06/03 01:39:12;;;;;;;7.57;1.83;;;;;;;;;;5092433;28;20036;-63
2023/06/03 01:41:42;;;;;;;5.07;1.42;;;;;;;;;;5089075;28;20128;-63
2023/06/03 01:44:08;;;;;;;3.75;1.90;;;;;;;;;;5102617;28;20416;-63
2023/06/03 01:46:35;;;;;;;3.83;1.70;;;;;;;;;;5092063;28;20134;-63
2023/06/03 01:49:02;;;;;;;6.07;2.17;;;;;;;;;;5091538;28;20044;-63
2023/06/03 01:51:29;;;;;;;2.63;1.88;;;;;;;;;;5090265;28;20043;-63
2023/06/03 01:53:55;;;;;;;4.75;1.45;;;;;;;;;;5126257;27;20047;-63
2023/06/03 01:56:21;;;;;;;2.47;1.58;;;;;;;;;;5093997;28;20035;-63
2023/06/03 01:58:47;;;;;;;4.68;1.60;;;;;;;;;;5088600;28;20371;-63
2023/06/03 02:01:13;;;;;;;2.67;1.42;;;;;;;;;;5098798;28;20257;-63
2023/06/03 02:03:40;;;;;;;3.10;1.40;;;;;;;;;;5094351;28;20039;-63
2023/06/03 02:06:06;;;;;;;3.08;1.65;;;;;;;;;;5089737;28;20047;-63
2023/06/03 02:08:32;;;;;;;9.73;1.50;;;;;;;;;;5091001;28;20564;-63
2023/06/03 02:10:58;;;;;;;4.07;1.20;;;;;;;;;;5096781;28;20542;-63
2023/06/03 02:13:24;;;;;;;2.53;1.55;;;;;;;;;;5094512;28;20177;-63
2023/06/03 02:15:51;;;;;;;2.92;1.58;;;;;;;;;;5092393;28;20400;-63
2023/06/03 02:18:17;;;;;;;3.20;1.38;;;;;;;;;;5071741;28;20032;-63
2023/06/03 02:20:43;;;;;;;1.70;1.30;;;;;;;;;;5096155;28;20115;-63
2023/06/03 02:23:11;;;;;;;3.15;1.40;;;;;;;;;;5088743;28;20044;-64
2023/06/03 02:25:37;;;;;;;4.18;1.58;;;;;;;;;;5090892;28;20477;-63
2023/06/03 02:28:04;;;;;;;4.25;1.48;;;;;;;;;;5096377;28;20089;-64
2023/06/03 02:30:30;;;;;;;2.72;1.45;;;;;;;;;;5090288;28;20039;-63
2023/06/03 02:32:56;;;;;;;1.70;1.20;;;;;;;;;;5093064;28;20036;-63
2023/06/03 02:35:23;;;;;;;3.25;1.50;;;;;;;;;;5091713;28;20089;-63
2023/06/03 02:37:49;;;;;;;3.03;1.42;;;;;;;;;;5089448;28;20123;-63
2023/06/03 02:40:15;;;;;;;1.88;1.02;;;;;;;;;;5071142;28;20128;-63
2023/06/03 02:42:41;;;;;;;3.22;1.58;;;;;;;;;;5091956;28;20071;-60
2023/06/03 02:45:08;;;;;;;4.60;1.42;;;;;;;;;;5087614;28;20139;-63
2023/06/03 02:47:34;;;;;;;1.67;1.35;;;;;;;;;;5078957;28;20516;-63
2023/06/03 02:50:01;;;;;;;4.25;1.70;;;;;;;;;;5094698;28;20042;-63
2023/06/03 02:52:27;;;;;;;2.92;1.67;;;;;;;;;;5091638;28;20047;-63
2023/06/03 02:54:53;;;;;;;5.75;1.80;;;;;;;;;;5086945;28;20044;-63
2023/06/03 02:57:22;;;;;;;4.05;1.52;;;;;;;;;;5093596;28;20055;-63
2023/06/03 02:59:48;;;;;;;4.00;1.50;;;;;;;;;;5090148;28;20039;-63
2023/06/03 03:02:16;;;;;;;3.63;1.58;;;;;;;;;;5089234;28;20063;-63
2023/06/03 03:04:42;;;;;;;4.00;1.83;;;;;;;;;;5092517;28;20044;-63
2023/06/03 03:07:08;;;;;;;4.20;2.00;;;;;;;;;;5100350;28;20108;-63
2023/06/03 03:09:35;;;;;;;2.38;1.15;;;;;;;;;;5084893;28;20080;-63
2023/06/03 03:12:02;;;;;;;3.03;2.03;;;;;;;;;;5087621;28;20051;-63
2023/06/03 03:14:28;;;;;;;3.95;1.50;;;;;;;;;;5088711;28;20051;-63
2023/06/03 03:16:54;;;;;;;2.78;1.50;;;;;;;;;;5093559;28;20039;-63
2023/06/03 03:19:20;;;;;;;4.53;2.03;;;;;;;;;;5090597;28;20115;-63
2023/06/03 03:21:46;;;;;;;2.63;1.50;;;;;;;;;;5088896;28;20044;-63
2023/06/03 03:24:13;;;;;;;3.53;1.50;;;;;;;;;;5099966;28;20044;-63
2023/06/03 03:26:40;;;;;;;4.38;1.30;;;;;;;;;;5087877;28;20040;-62
2023/06/03 03:29:06;;;;;;;4.03;1.40;;;;;;;;;;5088527;28;20040;-63
2023/06/03 03:31:32;;;;;;;4.03;1.77;;;;;;;;;;5087864;28;20105;-63
2023/06/03 03:33:59;;;;;;;2.03;1.30;;;;;;;;;;5098680;28;20040;-62
2023/06/03 03:36:29;;;;;;;4.10;1.90;;;;;;;;;;5099350;28;20115;-63
2023/06/03 03:39:05;;;;;;;4.10;1.52;;;;;;;;;;5090563;28;20407;-63
2023/06/03 03:41:31;;;;;;;1.90;1.58;;;;;;;;;;5086663;28;20032;-63
2023/06/03 03:43:57;;;;;;;3.10;1.50;;;;;;;;;;5123777;27;20705;-63
2023/06/03 03:46:23;;;;;;;2.95;1.30;;;;;;;;;;5094241;28;20455;-63
2023/06/03 03:48:49;;;;;;;2.85;1.50;;;;;;;;;;5089342;28;20051;-63
2023/06/03 03:51:16;;;;;;;3.80;1.40;;;;;;;;;;5099488;28;20155;-63
2023/06/03 03:53:46;;;;;;;2.95;1.48;;;;;;;;;;5122444;27;20419;-63
2023/06/03 03:56:20;;;;;;;3.08;1.40;;;;;;;;;;5072233;28;20040;-63
2023/06/03 03:58:48;;;;;;;3.47;1.38;;;;;;;;;;5088193;28;20044;-63
2023/06/03 04:01:16;;;;;;;4.63;1.30;;;;;;;;;;5097060;28;20491;-63
2023/06/03 04:03:46;;;;;;;3.90;1.40;;;;;;;;;;5095848;28;20164;-63
2023/06/03 04:06:13;;;;;;;4.35;1.15;;;;;;;;;;5088053;28;20127;-63
2023/06/03 04:08:45;;;;;;;2.28;1.25;;;;;;;;;;5084083;28;20167;-62
2023/06/03 04:11:17;;;;;;;3.05;1.60;;;;;;;;;;5082183;28;20048;-63
2023/06/03 04:13:43;;;;;;;2.95;1.50;;;;;;;;;;5081851;28;20063;-63
2023/06/03 04:16:19;;;;;;;3.92;2.00;;;;;;;;;;5085928;28;20040;-63
2023/06/03 04:18:45;;;;;;;3.15;1.80;;;;;;;;;;5070029;28;20057;-63
2023/06/03 04:21:19;;;;;;;2.53;1.55;;;;;;;;;;5096099;28;20418;-63
2023/06/03 04:23:45;;;;;;;1.52;1.13;;;;;;;;;;5090805;28;20040;-63
2023/06/03 04:26:15;;;;;;;3.50;1.40;;;;;;;;;;5051656;28;20048;-64
2023/06/03 04:28:41;;;;;;;4.32;1.85;;;;;;;;;;5067021;28;20036;-63
2023/06/03 04:31:07;;;;;;;2.55;1.20;;;;;;;;;;5069882;28;20384;-63
2023/06/03 04:33:33;;;;;;;3.15;1.85;;;;;;;;;;5086648;28;20044;-63
2023/06/03 04:36:00;;;;;;;3.53;1.50;;;;;;;;;;5085135;28;20118;-63
2023/06/03 04:38:26;;;;;;;4.07;1.90;;;;;;;;;;5090632;28;20032;-63
2023/06/03 04:40:53;;;;;;;2.80;1.48;;;;;;;;;;5091032;28;20119;-63
2023/06/03 04:43:19;;;;;;;2.88;1.50;;;;;;;;;;5090117;28;20033;-63
2023/06/03 04:45:51;;;;;;;7.03;1.77;;;;;;;;;;5086542;28;20113;-63
2023/06/03 04:48:17;;;;;;;4.32;1.98;;;;;;;;;;5095834;28;20056;-63
2023/06/03 04:50:44;;;;;;;3.10;1.75;;;;;;;;;;5096772;28;20225;-63
2023/06/03 04:53:13;;;;;;;5.38;1.58;;;;;;;;;;5090514;28;20510;-63
2023/06/03 04:55:43;;;;;;;4.55;1.45;;;;;;;;;;5098851;28;20160;-63
2023/06/03 04:58:13;;;;;;;3.45;1.50;;;;;;;;;;5096055;28;20035;-63
2023/06/03 05:00:40;;;;;;;4.03;1.77;;;;;;;;;;5088038;28;20079;-63
2023/06/03 05:03:08;;;;;;;3.08;1.75;;;;;;;;;;5092471;28;20028;-63
2023/06/03 05:05:38;;;;;;;4.80;1.60;;;;;;;;;;5092204;28;20031;-63
2023/06/03 05:08:04;;;;;;;5.85;2.08;;;;;;;;;;5096168;28;20032;-63
2023/06/03 05:10:30;;;;;;;2.75;1.85;;;;;;;;;;5111436;27;20075;-63
2023/06/03 05:12:57;;;;;;;5.28;1.85;;;;;;;;;;5091602;28;20040;-63
2023/06/03 05:15:23;;;;;;;3.55;2.08;;;;;;;;;;5091082;28;20071;-63
2023/06/03 05:17:49;;;;;;;3.65;1.77;;;;;;;;;;5086129;28;20132;-64
2023/06/03 05:20:16;;;;;;;5.38;1.67;;;;;;;;;;5109932;27;20051;-63
2023/06/03 05:22:42;;;;;;;2.38;1.65;;;;;;;;;;5089384;28;20040;-64
2023/06/03 05:25:08;;;;;;;3.13;1.50;;;;;;;;;;5080678;28;20070;-63
2023/06/03 05:27:35;;;;;;;5.00;1.60;;;;;;;;;;5077866;28;20063;-64
2023/06/03 05:30:01;;;;;;;3.40;2.05;;;;;;;;;;5093414;28;20509;-63
2023/06/03 05:32:27;;;;;;;2.50;1.63;;;;;;;;;;5072430;28;20069;-63
2023/06/03 05:34:53;;;;;;;4.43;1.60;;;;;;;;;;5096533;28;20138;-63
2023/06/03 05:37:20;;;;;;;4.35;1.52;;;;;;;;;;5093964;28;20047;-63
2023/06/03 05:39:46;;;;;;;2.72;1.65;;;;;;;;;;5091431;28;20472;-63
2023/06/03 05:42:12;;;;;;;3.67;1.90;;;;;;;;;;5074336;28;20082;-64
2023/06/03 05:44:38;;;;;;;3.20;1.63;;;;;;;;;;5096440;28;20054;-63
2023/06/03 05:47:04;;;;;;;2.47;1.70;;;;;;;;;;5089903;28;20122;-63
2023/06/03 05:49:30;;;;;;;2.40;1.48;;;;;;;;;;5113251;27;20112;-63
2023/06/03 05:51:57;;;;;;;4.57;1.50;;;;;;;;;;5099319;28;20687;-63
2023/06/03 05:54:28;;;;;;;3.60;1.48;;;;;;;;;;5088679;28;20395;-63
2023/06/03 05:56:54;;;;;;;2.78;1.73;;;;;;;;;;5088889;28;20327;-63
2023/06/03 05:59:20;;;;;;;4.40;1.75;;;;;;;;;;5083728;28;20122;-63
2023/06/03 06:01:46;;;;;;;7.88;2.10;;;;;;;;;;5093836;28;20036;-63
2023/06/03 06:04:12;;;;;;;3.97;1.40;;;;;;;;;;5065666;28;20043;-63
2023/06/03 06:06:39;;;;;;;2.53;1.50;;;;;;;;;;5077965;28;20407;-63
2023/06/03 06:09:05;;;;;;;3.63;1.45;;;;;;;;;;5077609;28;20039;-63
2023/06/03 06:11:31;;;;;;;2.80;1.38;;;;;;;;;;5085833;28;20048;-63
2023/06/03 06:13:57;;;;;;;2.00;1.30;;;;;;;;;;5090063;28;20063;-63
2023/06/03 06:16:23;;;;;;;3.08;1.63;;;;;;;;;;5082616;28;20426;-64
2023/06/03 06:18:49;;;;;;;2.22;1.27;;;;;;;;;;5085609;28;20053;-63
2023/06/03 06:21:16;;;;;;;1.52;1.23;;;;;;;;;;5090455;28;20170;-63
2023/06/03 06:23:43;;;;;;;2.10;1.05;;;;;;;;;;5091198;28;20071;-63
2023/06/03 06:26:09;;;;;;;3.83;1.30;;;;;;;;;;5082996;28;20135;-63
2023/06/03 06:28:35;;;;;;;3.88;1.42;;;;;;;;;;5095185;28;20044;-63
2023/06/03 06:31:04;;;;;;;3.28;1.88;;;;;;;;;;5078335;28;20048;-63
2023/06/03 06:33:31;;;;;;;5.28;1.60;;;;;;;;;;5066561;28;20070;-64
2023/06/03 06:35:57;;;;;;;2.28;1.40;;;;;;;;;;5065422;28;20044;-63
2023/06/03 06:38:23;;;;;;;2.55;1.75;;;;;;;;;;5079585;28;20179;-63
2023/06/03 06:40:50;;;;;;;4.30;1.48;;;;;;;;;;5097719;28;20065;-63
2023/06/03 06:43:21;;;;;;;4.10;1.45;;;;;;;;;;5093472;28;20268;-63
2023/06/03 06:45:47;;;;;;;2.33;0.95;;;;;;;;;;5088453;28;20044;-63
2023/06/03 06:48:13;;;;;;;4.18;1.20;;;;;;;;;;5082038;28;20043;-63
2023/06/03 06:50:56;;;;;;;3.30;1.15;;;;;;;;;;5089576;28;20035;-63
2023/06/03 06:53:23;;;;;;;3.00;1.42;;;;;;;;;;5091124;28;20108;-63
2023/06/03 06:55:56;;;;;;;2.80;1.38;;;;;;;;;;5098576;28;20039;-63
2023/06/03 06:58:23;;;;;;;3.53;1.23;;;;;;;;;;5095341;28;20399;-63
2023/06/03 07:00:49;;;;;;;2.67;1.15;;;;;;;;;;5093245;28;20050;-62
2023/06/03 07:03:17;;;;;;;3.97;1.38;;;;;;;;;;5085546;28;20044;-62
2023/06/03 07:05:43;;;;;;;3.13;1.23;;;;;;;;;;5050041;28;20515;-62
2023/06/03 07:08:10;;;;;;;3.75;1.80;;;;;;;;;;5085965;28;20036;-62
2023/06/03 07:10:36;;;;;;;3.00;1.10;;;;;;;;;;5091877;28;20081;-64
2023/06/03 07:13:03;;;;;;;2.13;1.15;;;;;;;;;;5087952;28;20717;-63
2023/06/03 07:15:30;;;;;;;5.70;1.10;;;;;;;;;;5087026;28;20203;-62
2023/06/03 07:17:57;;;;;;;186.57;21.58;;;;;;;;;;5089275;28;20119;-64
2023/06/03 07:20:26;;;;;;;123.43;15.60;;;;;;;;;;5091343;28;20044;-63
2023/06/03 07:22:52;;;;;;;101.75;12.60;;;;;;;;;;5069734;28;20127;-63
2023/06/03 07:25:41;;;;;;;66.78;8.05;;;;;;;;;;5095055;28;20051;-64
2023/06/03 07:28:11;;;;;;;58.50;9.98;;;;;;;;;;5079173;28;20419;-63
2023/06/03 07:30:38;;;;;;;74.72;13.38;;;;;;;;;;5085783;28;20436;-60
2023/06/03 07:33:05;;;;;;;92.10;12.05;;;;;;;;;;5089067;28;20044;-61
2023/06/03 07:35:34;;;;;;;14.77;2.67;;;;;;;;;;5089707;28;20032;-62
2023/06/03 07:38:00;;;;;;;4.43;1.92;;;;;;;;;;5084601;28;20040;-62
2023/06/03 07:40:32;;;;;;;4.63;1.60;;;;;;;;;;5085069;28;20503;-62
2023/06/03 07:42:58;;;;;;;7.07;1.80;;;;;;;;;;5091603;28;20040;-62
2023/06/03 07:45:26;;;;;;;2.55;1.17;;;;;;;;;;5088280;28;20122;-62
2023/06/03 07:47:52;;;;;;;2.85;1.38;;;;;;;;;;5088720;28;20048;-62
2023/06/03 07:50:22;;;;;;;3.78;1.35;;;;;;;;;;5087426;28;20115;-62
2023/06/03 07:52:51;;;;;;;4.10;1.50;;;;;;;;;;5087201;28;20172;-62
2023/06/03 07:55:18;;;;;;;2.72;1.25;;;;;;;;;;5087329;28;20068;-62
2023/06/03 07:57:46;;;;;;;4.07;1.20;;;;;;;;;;5089895;28;20054;-61
2023/06/03 08:00:15;;;;;;;2.85;1.27;;;;;;;;;;5094131;28;20069;-62
2023/06/03 08:02:41;;;;;;;4.45;1.40;;;;;;;;;;5079639;28;20044;-62
2023/06/03 08:05:07;;;;;;;4.25;1.35;;;;;;;;;;5087847;28;20086;-62
2023/06/03 08:07:33;;;;;;;2.90;1.25;;;;;;;;;;5087271;28;20043;-62
2023/06/03 08:10:00;;;;;;;1.92;1.17;;;;;;;;;;5087981;28;20451;-62
2023/06/03 08:12:30;;;;;;;2.55;1.30;;;;;;;;;;5088219;28;20553;-61
2023/06/03 08:14:57;;;;;;;2.80;1.33;;;;;;;;;;5087909;28;20040;-62
2023/06/03 08:17:36;;;;;;;3.05;1.20;;;;;;;;;;5121247;27;20506;-62
2023/06/03 08:20:08;;;;;;;1.52;1.13;;;;;;;;;;5091935;28;20460;-62
2023/06/03 08:22:34;;;;;;;5.00;1.55;;;;;;;;;;5090742;28;20040;-62
2023/06/03 08:25:00;;;;;;;2.90;1.10;;;;;;;;;;5090717;28;20140;-62
2023/06/03 08:27:26;;;;;;;2.95;1.20;;;;;;;;;;5089970;28;20542;-62
2023/06/03 08:29:53;;;;;;;2.05;1.20;;;;;;;;;;5092114;28;20086;-61
2023/06/03 08:32:19;;;;;;;2.58;1.38;;;;;;;;;;5090731;28;20054;-62
2023/06/03 08:34:45;;;;;;;2.95;1.80;;;;;;;;;;5093642;28;20052;-62
2023/06/03 08:37:12;;;;;;;6.78;1.63;;;;;;;;;;5094995;28;20066;-62
2023/06/03 08:39:38;;;;;;;2.60;1.10;;;;;;;;;;5085629;28;20036;-62
2023/06/03 08:42:09;;;;;;;3.08;1.30;;;;;;;;;;5092111;28;20471;-62
2023/06/03 08:44:44;;;;;;;2.08;1.17;;;;;;;;;;5091975;28;20043;-62
2023/06/03 08:47:10;;;;;;;5.30;1.38;;;;;;;;;;5086065;28;20055;-62
2023/06/03 08:49:41;;;;;;;3.80;1.13;;;;;;;;;;5095450;28;20040;-62
2023/06/03 08:52:09;;;;;;;3.90;1.42;;;;;;;;;;5094917;28;20036;-62
2023/06/03 08:54:36;;;;;;;6.15;1.65;;;;;;;;;;5084385;28;20048;-62
2023/06/03 08:57:06;;;;;;;4.22;1.05;;;;;;;;;;5089724;28;20430;-62
2023/06/03 08:59:33;;;;;;;2.13;1.05;;;;;;;;;;5094707;28;20495;-62
2023/06/03 09:02:00;;;;;;;0.88;0.73;;;;;;;;;;5095900;28;20047;-62
2023/06/03 09:04:27;;;;;;;3.38;1.08;;;;;;;;;;5126516;27;20040;-62
2023/06/03 09:06:56;;;;;;;1.63;1.08;;;;;;;;;;5101262;28;20513;-62
2023/06/03 09:09:22;;;;;;;2.90;1.10;;;;;;;;;;5096358;28;20040;-62
2023/06/03 09:11:49;;;;;;;3.83;1.25;;;;;;;;;;5089930;28;20499;-62
2023/06/03 09:14:17;;;;;;;2.33;1.00;;;;;;;;;;5091950;28;20047;-62
2023/06/03 09:16:43;;;;;;;3.50;1.25;;;;;;;;;;5104037;28;20040;-62
2023/06/03 09:19:10;;;;;;;2.92;1.15;;;13.60;99.90;;;;;;5077414;28;20039;-62
2023/06/03 09:21:37;;;;;;;2.25;0.90;;;17.70;91.40;;;;;;5090160;28;20142;-62
2023/06/03 09:24:03;;;;;;;1.88;0.88;;;17.70;90.50;;;;;;5089164;28;20040;-61
2023/06/03 09:26:29;;;;;;;1.25;0.80;;;17.70;90.20;;;;;;5089941;28;20557;-62
2023/06/03 09:28:55;;;;;;;2.78;1.10;;;17.80;89.90;;;;;;5089785;28;20078;-63
2023/06/03 09:31:22;;;;;;;1.55;0.70;;;17.90;89.60;;;;;;5089507;28;20512;-62
2023/06/03 09:33:49;;;;;;;2.40;1.08;;;17.90;86.90;;;;;;5090621;28;20084;-62
2023/06/03 09:36:15;;;;;;;2.55;1.60;;;18.00;86.20;;;;;;5081024;28;20496;-62
2023/06/03 09:38:54;;;;;;;1.42;0.88;;;18.00;86.30;;;;;;5073412;28;20055;-62
2023/06/03 09:41:26;;;;;;;2.22;0.95;;;18.10;82.20;;;;;;5090175;28;20047;-62
2023/06/03 09:43:54;;;;;;;1.90;1.00;;;18.20;83.80;;;;;;5090502;28;20040;-62
2023/06/03 09:46:20;;;;;;;2.58;1.38;;;18.20;83.60;;;;;;5093736;28;20036;-62
2023/06/03 09:48:46;;;;;;;1.13;0.80;;;18.30;83.20;;;;;;5089501;28;20050;-62
2023/06/03 09:51:12;;;;;;;4.35;0.93;;;18.30;82.40;;;;;;5090371;28;20036;-62
2023/06/03 09:53:37;;;;;;;5.20;1.38;;;18.30;81.80;;;;;;5093488;28;20032;-61
2023/06/03 09:56:23;;;;;;;4.72;1.50;;;18.30;80.80;;;;;;5085210;28;20140;-62
2023/06/03 09:58:51;;;;;;;2.97;0.80;;;18.40;76.00;;;;;;5085637;28;20055;-62
2023/06/03 10:01:33;;;;;;;3.22;0.90;;;18.40;78.10;;;;;;5087210;28;20028;-62
2023/06/03 10:04:00;;;;;;;4.40;0.95;;;18.40;76.40;;;;;;5091729;28;20035;-63
2023/06/03 10:06:26;;;;;;;5.15;1.33;;;18.40;78.40;;;;;;5090931;28;20040;-62
2023/06/03 10:08:52;;;;;;;4.45;1.13;;;18.40;78.80;;;;;;5088398;28;20043;-62
2023/06/03 10:11:18;;;;;;;3.67;1.20;;;18.50;77.80;;;;;;5096640;28;20128;-62
2023/06/03 10:13:44;;;;;;;1.95;1.70;;;18.60;77.50;;;;;;5073872;28;20056;-62
2023/06/03 10:16:11;;;;;;;1.80;1.00;;;18.70;76.80;;;;;;5070871;28;20081;-62
2023/06/03 10:18:41;;;;;;;2.40;0.93;;;18.70;76.40;;;;;;5095306;28;20078;-62
2023/06/03 10:21:10;;;;;;;2.10;1.20;;;18.70;76.20;;;;;;5091831;28;20035;-62
2023/06/03 10:23:42;;;;;;;2.00;1.00;;;18.70;76.90;;;;;;5092030;28;20058;-62
2023/06/03 10:26:09;;;;;;;2.60;1.40;;;18.70;75.90;;;;;;5090005;28;20454;-61
2023/06/03 10:28:38;;;;;;;4.50;1.33;;;18.80;76.80;;;;;;5092305;28;20044;-61
2023/06/03 10:31:05;;;;;;;1.45;0.80;;;18.80;76.80;;;;;;5067428;28;20036;-61
2023/06/03 10:33:33;;;;;;;1.75;0.90;;;18.90;75.90;;;;;;5081946;28;20490;-61
2023/06/03 10:36:02;;;;;;;2.97;0.98;;;19.00;74.60;;;;;;5074845;28;20404;-62
2023/06/03 10:38:27;;;;;;;4.47;1.48;;;19.00;73.20;;;;;;5096690;28;20471;-62
2023/06/03 10:40:54;;;;;;;1.95;1.02;;;19.10;73.70;;;;;;5096332;28;20047;-61
2023/06/03 10:43:22;;;;;;;4.90;1.60;;;19.10;73.20;;;;;;5090008;28;20028;-61
2023/06/03 10:45:52;;;;;;;4.00;1.20;;;19.20;73.30;;;;;;5081425;28;20039;-61
2023/06/03 10:48:21;;;;;;;2.50;0.90;;;19.20;72.30;;;;;;5088388;28;20514;-60
2023/06/03 10:50:47;;;;;;;3.42;0.80;;;19.30;71.40;;;;;;5088686;28;20043;-60
2023/06/03 10:53:44;;;;;;;2.90;0.98;;;19.30;71.70;;;;;;5089050;28;20495;-61
2023/06/03 10:56:29;;;;;;;4.57;1.10;;;19.40;72.40;;;;;;5093075;28;20039;-60
2023/06/03 10:59:04;;;;;;;2.05;0.80;;;19.40;72.80;;;;;;5090013;28;20055;-60
2023/06/03 11:01:57;;;;;;;4.45;1.67;;;19.50;71.30;;;;;;5088188;28;20540;-61
2023/06/03 11:04:24;;;;;;;3.25;1.05;;;19.50;70.60;;;;;;5084959;28;20403;-61
2023/06/03 11:06:50;;;;;;;1.98;1.30;;;19.50;72.30;;;;;;5100972;28;20039;-61
2023/06/03 11:09:29;;;;;;;2.83;0.80;;;19.50;71.00;;;;;;5094036;28;20462;-62
2023/06/03 11:12:03;;;;;;;2.75;0.98;;;19.60;69.90;;;;;;5089321;28;20112;-61
2023/06/03 11:14:38;;;;;;;1.67;0.90;;;19.60;70.00;;;;;;5091988;28;20101;-61
2023/06/03 11:17:03;;;;;;;5.10;1.00;;;19.60;69.60;;;;;;5092708;28;20051;-61
2023/06/03 11:19:36;;;;;;;1.35;0.70;;;19.60;69.40;;;;;;5088290;28;20032;-61
2023/06/03 11:22:09;;;;;;;5.90;1.02;;;19.60;69.30;;;;;;5086677;28;20039;-61
2023/06/03 11:24:38;;;;;;;2.47;0.95;;;19.60;69.70;;;;;;5080224;28;20076;-61
2023/06/03 11:27:24;;;;;;;1.75;1.00;;;19.70;67.60;;;;;;5093560;28;20051;-61
2023/06/03 11:29:51;;;;;;;2.97;1.23;;;19.70;67.50;;;;;;5092055;28;20084;-61
2023/06/03 11:32:19;;;;;;;6.57;1.10;;;19.80;69.60;;;;;;5083146;28;20082;-61
2023/06/03 11:34:47;;;;;;;1.92;0.98;;;19.90;67.80;;;;;;5084582;28;20036;-61
2023/06/03 11:37:17;;;;;;;1.55;0.88;;;19.90;67.60;;;;;;5085420;28;20036;-61
2023/06/03 11:40:06;;;;;;;3.33;0.88;;;20.00;67.70;;;;;;5091386;28;20400;-61
2023/06/03 11:42:32;;;;;;;2.15;1.02;;;20.00;65.70;;;;;;5071340;28;20403;-61
2023/06/03 11:45:36;;;;;;;2.25;1.00;;;20.00;67.80;;;;;;5090702;28;20040;-61
2023/06/03 11:48:08;;;;;;;3.35;0.93;;;20.10;66.00;;;;;;5024627;28;20083;-61
2023/06/03 11:50:50;;;;;;;4.88;0.88;;;20.10;67.60;;;;;;5074029;28;20078;-60
2023/06/03 11:53:28;;;;;;;1.88;0.90;;;20.10;65.20;;;;;;5089323;28;20079;-61
2023/06/03 11:56:04;;;;;;;0.95;0.80;;;20.10;65.10;;;;;;5092048;28;20035;-61
2023/06/03 11:58:30;;;;;;;1.42;0.85;;;20.20;65.10;;;;;;5089318;28;20173;-61
2023/06/03 12:01:06;;;;;;;2.13;0.80;;;20.30;65.40;;;;;;5092283;28;20043;-61
2023/06/03 12:03:32;;;;;;;1.48;1.00;;;20.30;63.10;;;;;;5101941;28;20042;-61
2023/06/03 12:06:02;;;;;;;6.18;1.48;;;20.30;63.10;;;;;;5094690;28;20037;-60
2023/06/03 12:08:46;;;;;;;2.75;1.15;;;20.40;63.00;;;;;;5096767;28;20039;-61
2023/06/03 12:11:27;;;;;;;4.38;1.20;;;20.50;63.40;;;;;;5103488;28;20293;-61
2023/06/03 12:13:53;;;;;;;3.42;1.15;;;20.50;62.30;;;;;;5102030;27;20534;-61
2023/06/03 12:16:33;;;;;;;2.38;0.80;;;20.50;62.80;;;;;;5094726;28;20028;-61
2023/06/03 12:19:01;;;;;;;3.40;1.33;;;20.60;62.00;;;;;;5093708;28;20047;-61
2023/06/03 12:21:27;;;;;;;1.85;0.93;;;20.60;62.70;;;;;;5091017;28;20040;-61
2023/06/03 12:23:53;;;;;;;3.08;1.20;;;20.60;63.00;;;;;;5098040;28;20430;-61
2023/06/03 12:26:19;;;;;;;3.58;1.40;;;20.60;63.10;;;;;;5093856;28;20332;-61
2023/06/03 12:28:46;;;;;;;4.18;1.23;;;20.60;62.40;;;;;;5093050;28;20517;-61
2023/06/03 12:31:16;;;;;;;3.78;1.25;;;20.70;62.40;;;;;;5097167;27;20035;-60
2023/06/03 12:33:44;;;;;;;1.27;1.02;;;20.80;62.30;;;;;;5095854;27;20058;-61
2023/06/03 12:36:11;;;;;;;6.35;1.42;;;20.80;62.70;;;;;;5091546;28;20065;-62
2023/06/03 12:38:54;;;;;;;1.33;0.90;;;20.80;63.00;;;;;;5093620;28;20040;-61
2023/06/03 12:41:20;;;;;;;3.90;1.48;;;20.90;62.90;;;;;;5092175;28;20126;-61
2023/06/03 12:43:47;;;;;;;2.75;1.15;;;20.90;63.00;;;;;;5095154;28;20086;-62
2023/06/03 12:46:16;;;;;;;4.05;1.00;;;21.00;63.00;;;;;;5092735;28;20055;-61
2023/06/03 12:48:42;;;;;;;6.00;1.65;;;21.00;63.00;;;;;;5095277;28;20539;-61
2023/06/03 12:51:25;;;;;;;4.15;1.88;;;21.00;63.20;;;;;;5088420;28;20036;-61
2023/06/03 12:54:01;;;;;;;2.05;1.00;;;21.00;64.00;;;;;;5092384;28;20040;-61
2023/06/03 12:56:27;;;;;;;2.55;1.00;;;21.10;63.70;;;;;;5094717;28;20115;-61
2023/06/03 12:58:54;;;;;;;2.83;1.10;;;21.20;63.90;;;;;;5098845;27;20494;-61
2023/06/03 13:01:23;;;;;;;2.40;1.20;;;21.20;63.70;;;;;;5091511;28;20475;-60
2023/06/03 13:03:54;;;;;;;4.70;1.20;;;21.10;63.60;;;;;;5124316;27;20051;-61
2023/06/03 13:06:21;;;;;;;3.25;1.10;;;21.20;63.30;;;;;;5103395;28;20043;-61
2023/06/03 13:08:50;;;;;;;2.83;1.20;;;21.20;64.00;;;;;;5090310;28;20035;-61
2023/06/03 13:11:21;;;;;;;2.53;1.00;;;21.20;64.60;;;;;;5091660;28;20055;-61
2023/06/03 13:13:50;;;;;;;2.47;1.35;;;21.20;64.40;;;;;;5093597;28;20048;-60
2023/06/03 13:16:16;;;;;;;2.92;1.50;;;21.20;64.40;;;;;;5092409;28;20031;-61
2023/06/03 13:18:42;;;;;;;4.47;1.33;;;21.10;64.80;;;;;;5087819;28;20043;-60
2023/06/03 13:21:07;;;;;;;2.63;1.88;;;21.20;65.20;;;;;;5115020;27;20033;-60
2023/06/03 13:23:33;;;;;;;2.03;1.00;;;21.20;65.00;;;;;;5083409;28;20036;-61
2023/06/03 13:26:00;;;;;;;7.05;1.70;;;21.10;64.40;;;;;;5087554;28;20044;-61
2023/06/03 13:28:26;;;;;;;1.15;0.95;;;21.10;64.80;;;;;;5090933;28;20040;-61
2023/06/03 13:30:52;;;;;;;3.05;1.23;;;21.20;64.90;;;;;;5070920;28;20036;-61
2023/06/03 13:33:18;;;;;;;3.38;1.20;;;21.20;64.70;;;;;;5123259;27;20112;-61
2023/06/03 13:35:44;;;;;;;4.57;1.60;;;21.20;64.50;;;;;;5092671;28;20043;-62
2023/06/03 13:38:12;;;;;;;6.93;1.48;;;21.10;64.20;;;;;;5092574;28;20115;-61
2023/06/03 13:40:38;;;;;;;5.80;1.23;;;21.10;64.60;;;;;;5081694;28;20040;-62
2023/06/03 13:43:04;;;;;;;5.03;1.33;;;21.10;65.00;;;;;;5096653;28;20036;-62
2023/06/03 13:45:30;;;;;;;3.53;1.20;;;21.10;65.30;;;;;;5092574;28;20036;-63
2023/06/03 13:47:56;;;;;;;2.58;1.02;;;21.20;65.00;;;;;;5075513;28;20286;-61
2023/06/03 13:50:22;;;;;;;3.35;1.02;;;21.20;64.60;;;;;;5090194;28;20040;-61
2023/06/03 13:52:48;;;;;;;4.22;1.10;;;21.20;64.90;;;;;;5090495;28;20039;-61
2023/06/03 13:55:15;;;;;;;3.35;1.02;;;21.20;64.60;;;;;;5084620;28;20134;-61
2023/06/03 13:57:41;;;;;;;6.07;1.40;;;21.10;64.00;;;;;;5088899;28;20370;-61
2023/06/03 14:00:08;;;;;;;2.28;1.15;;;21.10;63.70;;;;;;5086319;28;20032;-61
2023/06/03 14:02:34;;;;;;;4.72;1.30;;;21.10;63.20;;;;;;5095755;28;20032;-61
2023/06/03 14:04:59;;;;;;;2.97;1.00;;;21.10;63.50;;;;;;5090080;28;20044;-61